Washington, DC (20558)

1:44 PM EDT on July 30, 2015 (GMT -0400)
Logan Circle | | Change Station
CLOSE
Current Station
Personal Weather Station
Location: Washington, DC
Elevation: 108 ft
Nearby Weather Stations

Elev 108 ft 38.91 °N, 77.03 °W | Updated 19 seconds ago

Mostly Cloudy
Mostly Cloudy
91.1 °F
Feels Like 104 °F
N
0.0
Wind Variable Wind from North
Gusts 0.0 mph

Today
High -- | Low -- °F
--% Chance of Precip.
Yesterday
High -- | Low -- °F
Precip. -- in
6:07 AM 8:21 PM
Waxing Gibbous, 99% visible
Pressure 29.88 in
Visibility 10.0 miles
Clouds Scattered Clouds 3200 ft
Mostly Cloudy 25000 ft
Heat Index 104 °F
Dew Point 77 °F
Humidity 63%
Rainfall 0.00 in
Snow Depth Not available.
UV 6 out of 12
Pollen 6.10 out of 12
Air Quality Not available.
Flu Activity Not available.
SPECI KDCA 301714Z 17012KT 10SM SCT032 BKN250 33/25 A2988 RMK AO2 CB DSNT W-N MOV E

More Conditions Fewer Conditions

Pressure 29.88 in
Visibility 10.0 miles
Clouds Scattered Clouds 3200 ft
Mostly Cloudy 25000 ft
Heat Index 104 °F
Dew Point 77 °F
Humidity 63%
Rainfall 0.00 in
Snow Depth Not available.
UV 6 out of 12
Pollen 6.10 out of 12
Air Quality Not available.
Flu Activity Not available.
SPECI KDCA 301714Z 17012KT 10SM SCT032 BKN250 33/25 A2988 RMK AO2 CB DSNT W-N MOV E

More Conditions Fewer Conditions

Nowcast | as of 1:38 PM EDT on July 30, 2015

line of strong thunderstorms moving east toward the I-95 corridor... At 137 PM EDT...a line of strong thunderstorms was along a line extending from near New Freedom to 8 miles south of Linton Hall...and moving east at 25 mph. Winds in excess of 40 mph and pea size hail are possible with these storms. Locations impacted include... Baltimore...Rockville...Gaithersburg...College Park...Greenbelt... Fairfax...Vienna...Falls Church...Bel Air...Bladensburg... Springfield...Pimmit Hills...Union Square...Guilford...Howard Park... Olney...Bethesda...Camden Yards...Langley Park and Dale City. Lat...Lon 3967 7619 3927 7663 3875 7702 3888 7704 3873 7704 3862 7720 3866 7724 3855 7724 3856 7722 3860 7715 3858 7717 3850 7724 3849 7725 3856 7726 3850 7731 3857 7770 3971 7667 3972 7623 time...Mot...loc 1737z 272deg 23kt 3970 7663 3863 7758

×

10-Day Weather Forecast

×

Almanac

Astronomy

Jul. 30, 2015 Rise Set
Actual Time
Civil Twilight
Nautical Twilight
Astronomical Twilight
Moon
Length of Visible Light
Length of Day
Tomorrow will be .
, % of the Moon is Illuminated

Today's Extremes

State Highs State Lows

Community

WunderPhotos

Upload Photos

1,842,428 photos uploaded!

WunderBlogs® & News

Nearby

Air Quality

  Air Quality AQ Index Pollutant
Not available.

Snow Depth

Station Depth Elevation

Earthquake Activity

City Distance Mag. Time & Date
Minimum magnitude displayed is 2.5.

Coastal Water Temperatures

Place Temperature

Stations

Nearby Weather Stations

Station Location Temp. Windchill Dew Point Humidity Wind Precip. Elev Updated Type